createdAt,value
2023-05-18T13:39:57.057Z,21.73
2023-05-18T13:40:57.029Z,20.93
2023-05-18T13:41:56.991Z,20.13
2023-05-18T13:42:56.974Z,19.65
2023-05-18T14:03:23.455Z,20.57
2023-05-18T14:04:23.322Z,20.35
2023-05-18T14:06:27.560Z,20.64
2023-05-18T14:07:27.365Z,20.69
2023-05-18T14:09:32.015Z,21.18
2023-05-18T14:10:32.297Z,21.45
2023-05-18T14:12:36.099Z,21.38
2023-05-18T14:13:35.918Z,21.15
2023-05-18T14:14:35.962Z,21.21
2023-05-18T14:15:35.984Z,21.33
2023-05-18T14:16:35.912Z,21.43
2023-05-18T14:17:36.003Z,21.53
2023-05-18T14:18:35.869Z,21.61
2023-05-18T14:19:35.905Z,21.83
2023-05-18T14:20:35.793Z,21.99
2023-05-18T14:21:35.930Z,22.11
2023-05-18T14:22:35.788Z,22.08
2023-05-18T14:23:35.925Z,22.05
2023-05-18T14:24:35.730Z,21.99
2023-05-18T14:25:35.847Z,22.14
2023-05-18T14:26:35.841Z,22.14
2023-05-18T14:27:35.702Z,22.31
2023-05-18T14:28:35.759Z,22.41
2023-05-18T14:29:36.129Z,22.41
2023-05-18T14:30:35.763Z,22.39
2023-05-18T14:31:35.702Z,22.49
2023-05-18T14:32:35.809Z,22.49
2023-05-18T14:33:35.603Z,22.42
2023-05-18T14:34:35.738Z,22.51
2023-05-18T14:35:35.573Z,22.54
2023-05-18T14:36:35.715Z,22.61
2023-05-18T14:37:35.720Z,22.67
2023-05-18T14:38:35.514Z,22.97
2023-05-18T14:39:35.626Z,23.03
2023-05-18T14:40:35.532Z,22.94
2023-05-18T14:41:35.643Z,22.96
2023-05-18T14:42:35.472Z,22.93
2023-05-18T14:43:35.560Z,22.81
2023-05-18T14:44:35.429Z,22.61
2023-05-18T14:45:35.571Z,22.59
2023-05-18T14:46:35.452Z,22.56
2023-05-18T14:47:35.512Z,22.64
2023-05-18T14:48:35.485Z,22.76
2023-05-18T14:49:35.362Z,22.96
2023-05-18T14:50:38.340Z,23.14
2023-05-18T14:51:35.324Z,23.09
2023-05-18T14:52:35.410Z,23.04
2023-05-18T14:53:35.307Z,22.99
2023-05-18T14:54:35.281Z,23.16
2023-05-18T14:55:35.382Z,23.34
2023-05-18T14:56:35.258Z,23.21
2023-05-18T14:57:35.356Z,23.21
2023-05-18T14:58:35.226Z,23.25
2023-05-18T14:59:35.232Z,23.34
2023-05-18T15:00:35.228Z,23.31
2023-05-18T15:01:35.300Z,23.26
2023-05-18T15:02:35.222Z,22.97
2023-05-18T15:03:35.393Z,22.75
2023-05-18T15:04:35.150Z,22.56
2023-05-18T15:05:35.164Z,22.70
2023-05-18T15:06:35.127Z,22.33
2023-05-18T15:07:35.220Z,22.20
2023-05-18T15:08:35.087Z,21.86
2023-05-18T15:09:35.111Z,21.79
2023-05-18T15:10:35.067Z,21.79
2023-05-18T15:11:35.147Z,21.71
2023-05-18T15:12:35.036Z,21.63
2023-05-18T15:13:35.172Z,21.48
2023-05-18T15:14:35.012Z,21.38
2023-05-18T15:15:35.085Z,21.45
2023-05-18T15:16:35.001Z,21.59
2023-05-18T15:17:35.232Z,21.70
2023-05-18T15:18:34.940Z,21.81
2023-05-18T15:19:35.117Z,21.94
2023-05-18T15:20:34.911Z,22.05
2023-05-18T15:21:35.013Z,22.05
2023-05-18T15:22:34.923Z,22.09
2023-05-18T15:23:35.044Z,22.01
2023-05-18T15:24:34.871Z,21.86
2023-05-18T15:25:34.850Z,21.83
2023-05-18T15:26:34.945Z,21.74
2023-05-18T15:27:34.826Z,21.66
2023-05-18T15:28:34.966Z,21.55
2023-05-18T15:29:34.775Z,21.43
2023-05-18T15:30:34.764Z,21.43
2023-05-18T15:31:34.930Z,21.38
2023-05-18T15:32:34.787Z,21.33
2023-05-18T15:33:34.797Z,21.33
2023-05-18T15:34:34.730Z,21.40
2023-05-18T15:35:34.699Z,21.34
2023-05-18T15:36:34.675Z,21.36
2023-05-18T15:37:34.835Z,21.24
2023-05-18T15:38:34.640Z,21.01
2023-05-18T15:39:34.741Z,21.06
2023-05-18T15:40:34.619Z,21.06
2023-05-18T15:41:34.610Z,21.13
2023-05-18T15:42:34.771Z,21.21
2023-05-18T15:43:34.570Z,21.33
2023-05-18T15:44:34.674Z,21.31
2023-05-18T15:45:34.559Z,21.37
2023-05-18T15:46:34.618Z,21.42
2023-05-18T15:47:34.585Z,21.43
2023-05-18T15:48:34.599Z,21.36
2023-05-18T15:49:34.473Z,21.22
2023-05-18T15:50:34.611Z,20.87
2023-05-18T15:51:34.440Z,20.90
2023-05-18T15:52:34.524Z,20.81
2023-05-18T15:53:34.426Z,20.73
2023-05-18T15:54:34.541Z,20.87
2023-05-18T15:55:34.379Z,20.94
2023-05-18T15:56:34.460Z,21.09
2023-05-18T15:57:34.366Z,21.22
2023-05-18T15:58:34.477Z,21.27
2023-05-18T15:59:34.320Z,21.30
2023-05-18T16:00:34.378Z,21.37
2023-05-18T16:01:34.355Z,21.36
2023-05-18T16:02:34.349Z,21.31
2023-05-18T16:03:34.461Z,21.34
2023-05-18T16:04:34.314Z,21.15
2023-05-18T16:05:34.239Z,21.09
2023-05-18T16:06:34.326Z,21.06
2023-05-18T16:07:34.209Z,21.05
2023-05-18T16:08:34.231Z,20.98
2023-05-18T16:09:34.165Z,20.83
2023-05-18T16:10:34.512Z,21.03
2023-05-18T16:11:34.128Z,21.05
2023-05-18T16:12:34.157Z,21.11
2023-05-18T16:13:34.176Z,21.31
2023-05-18T16:14:34.104Z,21.40
2023-05-18T16:15:34.187Z,21.45
2023-05-18T16:16:34.125Z,21.45
2023-05-18T16:17:34.261Z,21.46
2023-05-18T16:18:34.034Z,21.58
2023-05-18T16:19:34.138Z,21.66
2023-05-18T16:20:34.374Z,21.66
2023-05-18T16:21:34.132Z,21.61
2023-05-18T16:22:33.969Z,21.56
2023-05-18T16:23:33.964Z,21.63
2023-05-18T16:24:33.929Z,21.70
2023-05-18T16:25:34.048Z,21.73
2023-05-18T16:26:33.928Z,21.75
2023-05-18T16:27:33.959Z,21.52
2023-05-18T16:28:33.867Z,21.49
2023-05-18T16:29:33.983Z,21.40
2023-05-18T16:30:34.064Z,21.48
2023-05-18T16:31:34.000Z,21.45
2023-05-18T16:32:33.875Z,21.49
2023-05-18T16:33:33.894Z,21.36
2023-05-18T16:34:33.769Z,21.27
2023-05-18T16:35:33.918Z,21.28
2023-05-18T16:36:33.774Z,21.06
2023-05-18T16:37:33.822Z,20.94
2023-05-18T16:38:33.720Z,20.94
2023-05-18T16:39:33.686Z,21.05
2023-05-18T16:40:33.917Z,21.06
2023-05-18T16:41:33.749Z,21.06
2023-05-18T16:42:33.670Z,21.08
2023-05-18T16:43:33.762Z,21.03
2023-05-18T16:44:33.639Z,20.94
2023-05-18T16:45:33.691Z,21.12
2023-05-18T16:46:33.638Z,21.13
2023-05-18T16:47:33.647Z,21.24
2023-05-18T16:48:33.561Z,21.06
2023-05-18T16:49:33.613Z,21.06
2023-05-18T16:50:33.729Z,20.91
2023-05-18T16:51:33.513Z,20.73
2023-05-18T16:52:33.487Z,20.72
2023-05-18T16:53:33.539Z,20.71
2023-05-18T16:54:33.448Z,20.56
2023-05-18T16:55:33.441Z,20.50
2023-05-18T16:56:33.417Z,20.46
2023-05-18T16:57:33.479Z,20.54
2023-05-18T16:58:33.385Z,20.37
2023-05-18T16:59:33.472Z,20.38
2023-05-18T17:00:33.437Z,20.44
2023-05-18T17:01:33.356Z,20.38
2023-05-18T17:02:36.297Z,20.25
2023-05-18T17:03:33.464Z,19.95
2023-05-18T17:04:33.407Z,19.89
2023-05-18T17:05:33.273Z,19.83
2023-05-18T17:06:33.277Z,19.82
2023-05-18T17:07:33.266Z,19.89
2023-05-18T17:08:33.323Z,19.90
2023-05-18T17:09:33.207Z,19.98
2023-05-18T17:10:33.377Z,19.98
2023-05-18T17:11:33.179Z,19.97
2023-05-18T17:12:33.165Z,19.85
2023-05-18T17:13:33.160Z,19.80
2023-05-18T17:14:33.111Z,19.79
2023-05-18T17:15:33.285Z,19.79
2023-05-18T17:16:33.169Z,19.86
2023-05-18T17:17:33.144Z,19.86
2023-05-18T17:18:33.054Z,19.75
2023-05-18T17:19:33.099Z,19.52
2023-05-18T17:20:33.275Z,19.43
2023-05-18T17:21:33.115Z,19.32
2023-05-18T17:22:33.026Z,19.31
2023-05-18T17:23:32.980Z,19.21
2023-05-18T17:24:33.041Z,19.12
2023-05-18T17:25:32.940Z,19.21
2023-05-18T17:26:32.949Z,19.16
2023-05-18T17:27:32.914Z,19.17
2023-05-18T17:28:32.914Z,19.16
2023-05-18T17:29:32.978Z,19.25
2023-05-18T17:30:33.064Z,19.07
2023-05-18T17:31:32.936Z,19.25
2023-05-18T17:32:32.858Z,19.10
2023-05-18T17:33:32.804Z,18.96
2023-05-18T17:34:32.789Z,18.94
2023-05-18T17:35:32.760Z,18.93
2023-05-18T17:36:32.818Z,18.78
2023-05-18T17:37:32.744Z,18.82
2023-05-18T17:38:32.715Z,18.66
2023-05-18T17:39:32.696Z,18.57
2023-05-18T17:40:33.033Z,18.68
2023-05-18T17:41:32.669Z,18.59
2023-05-18T17:42:32.748Z,18.51
2023-05-18T17:43:32.629Z,18.44
2023-05-18T17:44:32.660Z,18.46
2023-05-18T17:45:32.598Z,18.42
2023-05-18T17:46:32.725Z,18.35
2023-05-18T17:47:32.589Z,18.42
2023-05-18T17:48:32.585Z,18.29
2023-05-18T17:49:32.595Z,18.11
2023-05-18T17:50:32.750Z,18.14
2023-05-18T17:51:32.499Z,18.14
2023-05-18T17:52:32.478Z,18.07
2023-05-18T17:53:32.519Z,18.04
2023-05-18T17:54:32.431Z,18.11
2023-05-18T17:55:32.534Z,18.09
2023-05-18T17:56:32.395Z,18.04
2023-05-18T17:57:32.444Z,17.96
2023-05-18T17:58:32.357Z,17.92
2023-05-18T17:59:32.375Z,17.87
2023-05-18T18:00:32.454Z,17.84
2023-05-18T18:01:32.409Z,17.87
2023-05-18T18:02:32.369Z,17.76
2023-05-18T18:03:32.452Z,17.76
2023-05-18T18:04:32.249Z,17.65
2023-05-18T18:05:34.620Z,17.63
2023-05-18T18:06:32.212Z,17.49
2023-05-18T18:07:32.313Z,17.47
2023-05-18T18:08:32.202Z,17.39
2023-05-18T18:09:32.241Z,17.39
2023-05-18T18:10:32.382Z,17.20
2023-05-18T18:11:32.121Z,17.25
2023-05-18T18:12:32.263Z,17.12
2023-05-18T18:13:32.094Z,17.02
2023-05-18T18:14:32.167Z,16.98
2023-05-18T18:15:32.049Z,16.87
2023-05-18T18:16:32.029Z,16.85
2023-05-18T18:17:32.111Z,16.77
2023-05-18T18:18:31.995Z,16.73
2023-05-18T18:19:32.135Z,16.69
2023-05-18T18:20:32.111Z,16.66
2023-05-18T18:21:31.969Z,16.65
2023-05-18T18:22:33.605Z,16.66
2023-05-18T18:23:31.927Z,16.65
2023-05-18T18:24:31.873Z,16.62
2023-05-18T18:25:31.941Z,16.55
2023-05-18T18:26:31.832Z,16.60
2023-05-18T18:27:31.844Z,16.52
2023-05-18T18:28:31.794Z,16.44
2023-05-18T18:29:31.866Z,16.34
2023-05-18T18:30:32.033Z,16.36
2023-05-18T18:31:31.872Z,16.27
2023-05-18T18:32:31.742Z,16.22
2023-05-18T18:33:31.800Z,16.13
2023-05-18T18:34:31.700Z,16.16
2023-05-18T18:35:31.716Z,16.14
2023-05-18T18:36:31.651Z,16.14
2023-05-18T18:37:31.627Z,16.17
2023-05-18T18:38:31.608Z,16.14
2023-05-18T18:39:31.637Z,16.08
2023-05-18T18:40:31.746Z,16.13
2023-05-18T18:41:31.649Z,16.14
2023-05-18T18:42:31.551Z,15.98
2023-05-18T18:43:31.505Z,16.01
2023-05-18T18:44:31.564Z,15.91
2023-05-18T18:45:31.480Z,15.95
2023-05-18T18:46:31.519Z,15.86
2023-05-18T18:47:31.475Z,15.80
2023-05-18T18:48:31.509Z,15.84
2023-05-18T18:49:31.393Z,15.71
2023-05-18T18:50:31.604Z,15.73
2023-05-18T18:51:31.354Z,15.73
2023-05-18T18:52:31.424Z,15.66
2023-05-18T18:53:31.308Z,15.70
2023-05-18T18:54:31.323Z,15.71
2023-05-18T18:55:31.508Z,15.67
2023-05-18T18:56:31.351Z,15.66
2023-05-18T18:57:31.233Z,15.66
2023-05-18T18:58:31.217Z,15.56
2023-05-18T18:59:31.259Z,15.51
2023-05-18T19:00:31.164Z,15.49
2023-05-18T19:01:31.199Z,15.58
2023-05-18T19:02:31.140Z,15.49
2023-05-18T19:03:31.121Z,15.49
2023-05-18T19:04:31.129Z,15.49
2023-05-18T19:05:31.417Z,15.38
2023-05-18T19:06:31.040Z,15.49
2023-05-18T19:07:31.120Z,15.37
2023-05-18T19:08:31.022Z,15.34
2023-05-18T19:09:31.188Z,15.40
2023-05-18T19:10:31.029Z,15.38
2023-05-18T19:11:30.948Z,15.20
2023-05-18T19:12:30.956Z,15.30
2023-05-18T19:13:30.947Z,15.30
2023-05-18T19:14:30.895Z,15.30
2023-05-18T19:15:31.068Z,15.25
2023-05-18T19:16:30.897Z,15.19
2023-05-18T19:17:30.872Z,15.13
2023-05-18T19:18:30.900Z,15.15
2023-05-18T19:19:30.804Z,15.04
2023-05-18T19:20:30.760Z,15.07
2023-05-18T19:21:30.806Z,15.01
2023-05-18T19:22:30.716Z,15.07
2023-05-18T19:23:30.715Z,14.95
2023-05-18T19:24:30.680Z,14.97
2023-05-18T19:25:30.855Z,14.86
2023-05-18T19:26:30.638Z,14.82
2023-05-18T19:27:30.657Z,14.74
2023-05-18T19:28:30.595Z,14.75
2023-05-18T19:29:30.662Z,14.66
2023-05-18T19:30:30.568Z,14.80
2023-05-18T19:31:30.590Z,14.66
2023-05-18T19:32:30.611Z,14.72
2023-05-18T19:33:30.494Z,14.64
2023-05-18T19:34:30.529Z,14.54
2023-05-18T19:35:30.636Z,14.59
2023-05-18T19:36:30.450Z,14.52
2023-05-18T19:37:30.409Z,14.49
2023-05-18T19:38:30.430Z,14.52
2023-05-18T19:39:30.378Z,14.44
2023-05-18T19:40:30.468Z,14.46
2023-05-18T19:41:30.340Z,14.42
2023-05-18T19:42:30.355Z,14.41
2023-05-18T19:43:30.278Z,14.38
2023-05-18T19:44:30.358Z,14.35
2023-05-18T19:45:30.512Z,14.26
2023-05-18T19:46:30.296Z,14.30
2023-05-18T19:47:30.268Z,14.24
2023-05-18T19:48:30.283Z,14.19
2023-05-18T19:49:30.155Z,14.17
2023-05-18T19:50:30.199Z,14.17
2023-05-18T19:51:30.144Z,14.21
2023-05-18T19:52:30.119Z,14.05
2023-05-18T19:53:30.131Z,14.19
2023-05-18T19:54:30.097Z,14.04
2023-05-18T19:55:30.245Z,14.13
2023-05-18T19:56:30.023Z,14.04
2023-05-18T19:57:30.048Z,14.01
2023-05-18T19:58:29.978Z,14.02
2023-05-18T19:59:30.072Z,13.90
2023-05-18T20:00:30.010Z,13.91
2023-05-18T20:01:30.030Z,13.94
2023-05-18T20:02:29.909Z,13.87
2023-05-18T20:03:29.874Z,13.80
2023-05-18T20:04:29.915Z,13.87
2023-05-18T20:05:29.888Z,13.80
2023-05-18T20:06:29.786Z,13.83
2023-05-18T20:07:29.816Z,13.81
2023-05-18T20:08:29.754Z,13.83
2023-05-18T20:09:29.823Z,13.75
2023-05-18T20:10:29.942Z,13.79
2023-05-18T20:11:29.733Z,13.71
2023-05-18T20:12:29.672Z,13.65
2023-05-18T20:13:30.660Z,13.69
2023-05-18T20:14:29.633Z,13.66
2023-05-18T20:15:29.656Z,13.73
2023-05-18T20:16:29.629Z,13.71
2023-05-18T20:17:29.668Z,13.66
2023-05-18T20:18:29.524Z,13.66
2023-05-18T20:19:30.351Z,13.66
2023-05-18T20:20:29.642Z,13.62
2023-05-18T20:21:29.505Z,13.66
2023-05-18T20:22:29.440Z,13.65
2023-05-18T20:23:29.524Z,13.51
2023-05-18T20:24:29.400Z,13.51
2023-05-18T20:25:29.380Z,13.55
2023-05-18T20:26:32.013Z,13.48
2023-05-18T20:27:29.336Z,13.55
2023-05-18T20:28:29.336Z,13.41
2023-05-18T20:29:29.288Z,13.41
2023-05-18T20:30:29.482Z,13.44
2023-05-18T20:31:29.283Z,13.35
2023-05-18T20:32:29.291Z,13.36
2023-05-18T20:33:29.205Z,13.29
2023-05-18T20:34:29.288Z,13.31
2023-05-18T20:35:29.179Z,13.38
2023-05-18T20:36:29.132Z,13.32
2023-05-18T20:37:29.192Z,13.32
2023-05-18T20:38:29.119Z,13.28
2023-05-18T20:39:29.206Z,13.35
2023-05-18T20:40:29.067Z,13.27
2023-05-18T20:41:29.047Z,13.32
2023-05-18T20:42:29.005Z,13.35
2023-05-18T20:43:29.046Z,13.25
2023-05-18T20:44:28.980Z,13.12
2023-05-18T20:45:29.044Z,13.24
2023-05-18T20:46:28.937Z,13.24
2023-05-18T20:47:28.931Z,13.21
2023-05-18T20:48:29.004Z,13.16
2023-05-18T20:49:28.852Z,13.16
2023-05-18T20:50:28.910Z,13.12
2023-05-18T20:51:28.830Z,13.16
2023-05-18T20:52:28.799Z,13.12
2023-05-18T20:53:28.765Z,13.04
2023-05-18T20:54:28.825Z,13.07
2023-05-18T20:55:28.719Z,12.98
2023-05-18T20:56:29.741Z,13.06
2023-05-18T20:57:28.678Z,13.01
2023-05-18T20:58:28.653Z,13.10
2023-05-18T20:59:28.737Z,12.96
2023-05-18T21:00:28.604Z,12.91
2023-05-18T21:01:28.733Z,12.95
2023-05-18T21:02:28.663Z,12.91
2023-05-18T21:03:28.582Z,12.87
2023-05-18T21:04:28.520Z,12.84
2023-05-18T21:05:28.592Z,12.87
2023-05-18T21:06:28.470Z,12.81
2023-05-18T21:07:28.499Z,12.81
2023-05-18T21:08:28.426Z,12.81
2023-05-18T21:09:28.427Z,12.77
2023-05-18T21:10:28.438Z,12.79
2023-05-18T21:11:28.360Z,12.76
2023-05-18T21:12:29.447Z,12.76
2023-05-18T21:13:28.315Z,12.69
2023-05-18T21:14:28.294Z,12.70
2023-05-18T21:15:28.266Z,12.77
2023-05-18T21:16:28.400Z,12.71
2023-05-18T21:17:28.252Z,12.66
2023-05-18T21:18:28.276Z,12.62
2023-05-18T21:19:28.251Z,12.58
2023-05-18T21:20:28.181Z,12.62
2023-05-18T21:21:28.193Z,12.59
2023-05-18T21:22:28.120Z,12.59
2023-05-18T21:23:28.215Z,12.59
2023-05-18T21:24:28.075Z,12.52
2023-05-18T21:25:28.047Z,12.62
2023-05-18T21:26:28.026Z,12.55
2023-05-18T21:27:28.033Z,12.58
2023-05-18T21:28:28.065Z,12.54
2023-05-18T21:29:28.052Z,12.59
2023-05-18T21:30:27.943Z,12.58
2023-05-18T21:31:28.043Z,12.52
2023-05-18T21:32:27.998Z,12.56
2023-05-18T21:33:28.024Z,12.51
2023-05-18T21:34:27.845Z,12.55
2023-05-18T21:35:27.879Z,12.52
2023-05-18T21:36:27.805Z,12.55
2023-05-18T21:37:27.896Z,12.55
2023-05-18T21:38:27.768Z,12.46
2023-05-18T21:39:27.814Z,12.41
2023-05-18T21:40:27.718Z,12.40
2023-05-18T21:41:27.720Z,12.40
2023-05-18T21:42:27.668Z,12.44
2023-05-18T21:43:27.731Z,12.43
2023-05-18T21:44:27.624Z,12.46
2023-05-18T21:45:27.681Z,12.38
2023-05-18T21:46:27.676Z,12.33
2023-05-18T21:47:27.609Z,12.37
2023-05-18T21:48:27.532Z,12.33
2023-05-18T21:49:27.582Z,12.36
2023-05-18T21:50:27.481Z,12.26
2023-05-18T21:51:27.491Z,12.26
2023-05-18T21:52:27.454Z,12.31
2023-05-18T21:53:27.524Z,12.36
2023-05-18T21:54:27.411Z,12.26
2023-05-18T21:55:27.417Z,12.16
2023-05-18T21:56:27.343Z,12.26
2023-05-18T21:57:27.430Z,12.22
2023-05-18T21:58:27.305Z,12.19
2023-05-18T21:59:27.353Z,12.25
2023-05-18T22:00:27.318Z,12.21
2023-05-18T22:01:27.424Z,12.16
2023-05-18T22:02:27.243Z,12.19
2023-05-18T22:03:27.204Z,12.12
2023-05-18T22:04:27.204Z,12.13
2023-05-18T22:05:27.176Z,12.18
2023-05-18T22:06:27.136Z,12.05
2023-05-18T22:07:27.200Z,12.07
2023-05-18T22:08:27.093Z,12.11
2023-05-18T22:09:27.055Z,12.07
2023-05-18T22:10:27.117Z,12.07
2023-05-18T22:11:27.011Z,12.07
2023-05-18T22:12:27.037Z,12.05
2023-05-18T22:13:26.976Z,12.01
2023-05-18T22:14:26.953Z,11.97
2023-05-18T22:15:26.918Z,11.93
2023-05-18T22:16:26.965Z,11.85
2023-05-18T22:17:26.916Z,11.93
2023-05-18T22:18:27.016Z,11.90
2023-05-18T22:19:26.906Z,11.88
2023-05-18T22:20:26.830Z,11.77
2023-05-18T22:21:26.884Z,11.79
2023-05-18T22:22:30.243Z,11.78
2023-05-18T22:23:26.814Z,11.87
2023-05-18T22:24:26.718Z,11.75
2023-05-18T22:25:26.686Z,11.84
2023-05-18T22:26:26.662Z,11.82
2023-05-18T22:27:26.753Z,11.75
2023-05-18T22:28:26.631Z,11.82
2023-05-18T22:29:27.715Z,11.79
2023-05-18T22:30:26.571Z,11.69
2023-05-18T22:31:26.552Z,11.69
2023-05-18T22:32:26.635Z,11.66
2023-05-18T22:33:26.503Z,11.69
2023-05-18T22:34:26.564Z,11.72
2023-05-18T22:35:26.466Z,11.72
2023-05-18T22:36:26.433Z,11.70
2023-05-18T22:37:26.410Z,11.64
2023-05-18T22:38:26.490Z,11.67
2023-05-18T22:39:26.362Z,11.66
2023-05-18T22:40:26.417Z,11.57
2023-05-18T22:41:26.307Z,11.62
2023-05-18T22:42:26.309Z,11.60
2023-05-18T22:43:26.264Z,11.57
2023-05-18T22:44:26.337Z,11.51
2023-05-18T22:45:26.229Z,11.53
2023-05-18T22:46:26.262Z,11.53
2023-05-18T22:47:26.168Z,11.42
2023-05-18T22:48:26.262Z,11.39
2023-05-18T22:49:26.141Z,11.35
2023-05-18T22:50:26.176Z,11.41
2023-05-18T22:51:26.078Z,11.45
2023-05-18T22:52:26.067Z,11.38
2023-05-18T22:53:26.028Z,11.38
2023-05-18T22:54:26.089Z,11.41
2023-05-18T22:55:26.013Z,11.38
2023-05-18T22:56:25.996Z,11.27
2023-05-18T22:57:25.931Z,11.35
2023-05-18T22:58:25.913Z,11.30
2023-05-18T22:59:25.884Z,11.28
2023-05-18T23:00:25.930Z,11.31
2023-05-18T23:01:25.872Z,11.30
2023-05-18T23:02:25.884Z,11.30
2023-05-18T23:03:25.810Z,11.24
2023-05-18T23:04:25.860Z,11.21
2023-05-18T23:05:25.842Z,11.28
2023-05-18T23:06:25.772Z,11.30
2023-05-18T23:07:25.705Z,11.30
2023-05-18T23:08:25.791Z,11.33
2023-05-18T23:09:25.690Z,11.27
2023-05-18T23:10:25.706Z,11.13
2023-05-18T23:11:25.609Z,11.23
2023-05-18T23:12:25.634Z,11.13
2023-05-18T23:13:25.567Z,11.11
2023-05-18T23:14:25.593Z,11.06
2023-05-18T23:15:25.523Z,11.08
2023-05-18T23:16:25.573Z,11.05
2023-05-18T23:17:25.545Z,11.01
2023-05-18T23:18:25.565Z,10.98
2023-05-18T23:19:25.541Z,10.94
2023-05-18T23:20:25.430Z,10.99
2023-05-18T23:21:25.477Z,10.93
2023-05-18T23:22:25.360Z,10.83
2023-05-18T23:23:25.383Z,10.75
2023-05-18T23:24:25.307Z,10.76
2023-05-18T23:25:25.302Z,10.76
2023-05-18T23:26:25.288Z,10.75
2023-05-18T23:27:25.305Z,10.66
2023-05-18T23:28:25.232Z,10.63
2023-05-18T23:29:25.214Z,10.57
2023-05-18T23:30:25.169Z,10.55
2023-05-18T23:31:25.156Z,10.58
2023-05-18T23:32:25.204Z,10.54
2023-05-18T23:33:25.179Z,10.47
2023-05-18T23:34:25.157Z,10.58
2023-05-18T23:35:25.044Z,10.54
2023-05-18T23:36:25.037Z,10.55
2023-05-18T23:37:24.997Z,10.51
2023-05-18T23:38:25.085Z,10.47
2023-05-18T23:39:24.955Z,10.47
2023-05-18T23:40:24.989Z,10.47
2023-05-18T23:41:24.923Z,10.47
2023-05-18T23:42:24.902Z,10.38
2023-05-18T23:43:24.854Z,10.36
2023-05-18T23:44:24.927Z,10.34
2023-05-18T23:45:24.864Z,10.34
2023-05-18T23:46:25.074Z,10.39
2023-05-18T23:47:25.034Z,10.34
2023-05-18T23:48:24.743Z,10.25
2023-05-18T23:49:24.748Z,10.24
2023-05-18T23:50:24.701Z,10.22
2023-05-18T23:51:24.766Z,10.26
2023-05-18T23:52:24.648Z,10.17
2023-05-18T23:53:24.685Z,9.99
2023-05-18T23:54:24.615Z,9.96
2023-05-18T23:55:24.699Z,9.98
2023-05-18T23:56:24.553Z,9.99
2023-05-18T23:57:24.592Z,9.92
2023-05-18T23:58:24.597Z,9.86
2023-05-18T23:59:24.481Z,9.88
